createdAt,value
2023-04-28T00:02:55.781Z,92.43
2023-04-28T00:06:00.559Z,91.93
2023-04-28T00:09:03.967Z,94.79
2023-04-28T00:12:15.786Z,92.85
2023-04-28T00:15:18.614Z,94.40
2023-04-28T00:18:28.886Z,93.31
2023-04-28T00:21:33.255Z,92.06
2023-04-28T00:24:36.857Z,90.73
2023-04-28T00:27:39.008Z,90.78
2023-04-28T00:30:51.432Z,91.18
2023-04-28T00:33:54.064Z,91.40
2023-04-28T00:36:57.923Z,92.15
2023-04-28T00:40:03.017Z,92.16
2023-04-28T00:43:07.414Z,92.17
2023-04-28T00:46:21.048Z,91.59
2023-04-28T00:49:25.341Z,92.25
2023-04-28T00:52:29.261Z,93.24
2023-04-28T00:55:36.730Z,95.67
2023-04-28T00:58:43.161Z,96.04
2023-04-28T01:01:53.926Z,96.57
2023-04-28T01:05:01.381Z,96.79
2023-04-28T01:08:05.403Z,97.67
2023-04-28T01:11:11.393Z,98.90
2023-04-28T01:14:19.018Z,99.19
2023-04-28T01:17:26.186Z,98.78
2023-04-28T01:20:35.829Z,99.50
2023-04-28T01:23:56.963Z,98.43
2023-04-28T01:27:07.835Z,99.17
2023-04-28T01:30:10.735Z,96.32
2023-04-28T01:33:17.614Z,96.65
2023-04-28T01:39:40.907Z,96.22
2023-04-28T01:42:43.783Z,96.42
2023-04-28T01:45:47.840Z,95.36
2023-04-28T01:48:52.549Z,95.39
2023-04-28T01:52:03.086Z,96.10
2023-04-28T01:55:13.158Z,98.55
2023-04-28T01:58:21.159Z,97.50
2023-04-28T02:01:26.896Z,97.97
2023-04-28T02:04:29.683Z,98.54
2023-04-28T02:07:32.150Z,95.14
2023-04-28T02:10:39.023Z,92.65
2023-04-28T02:13:42.437Z,94.03
2023-04-28T02:16:48.889Z,93.50
2023-04-28T02:20:02.194Z,92.09
2023-04-28T02:23:06.776Z,91.23
2023-04-28T02:26:14.160Z,94.11
2023-04-28T02:29:17.301Z,92.92
2023-04-28T02:32:35.184Z,91.97
2023-04-28T02:35:56.957Z,92.06
2023-04-28T02:39:04.103Z,93.20
2023-04-28T02:42:12.626Z,92.63
2023-04-28T02:45:17.507Z,91.71
2023-04-28T02:48:21.202Z,92.68
2023-04-28T02:51:39.773Z,91.81
2023-04-28T02:54:44.532Z,92.72
2023-04-28T02:57:54.417Z,92.53
2023-04-28T03:00:59.109Z,90.10
2023-04-28T03:04:16.164Z,89.08
2023-04-28T03:07:36.007Z,89.95
2023-04-28T03:10:40.944Z,90.50
2023-04-28T03:13:44.498Z,91.00
2023-04-28T03:16:57.625Z,89.22
2023-04-28T03:20:23.895Z,86.64
2023-04-28T03:23:29.775Z,87.99
2023-04-28T03:26:52.214Z,87.56
2023-04-28T03:29:54.829Z,88.32
2023-04-28T03:33:00.815Z,86.40
2023-04-28T03:36:16.301Z,86.31
2023-04-28T03:39:23.707Z,86.78
2023-04-28T03:42:33.508Z,87.69
2023-04-28T03:45:37.708Z,88.86
2023-04-28T03:48:51.994Z,87.53
2023-04-28T03:51:59.694Z,88.26
2023-04-28T03:55:03.974Z,89.92
2023-04-28T03:58:09.747Z,90.35
2023-04-28T04:01:32.405Z,90.21
2023-04-28T04:04:36.450Z,91.30
2023-04-28T04:07:41.047Z,88.59
2023-04-28T04:10:51.626Z,85.83
2023-04-28T04:14:01.422Z,86.00
2023-04-28T04:17:05.886Z,86.69
2023-04-28T04:20:11.759Z,88.39
2023-04-28T04:23:15.554Z,87.33
2023-04-28T04:26:22.342Z,86.57
2023-04-28T04:29:26.863Z,83.20
2023-04-28T04:32:29.816Z,83.45
2023-04-28T04:35:39.094Z,85.91
2023-04-28T04:38:48.795Z,85.64
2023-04-28T04:41:51.803Z,82.00
2023-04-28T04:45:00.558Z,78.96
2023-04-28T04:48:10.447Z,75.77
2023-04-28T04:51:13.266Z,68.44
2023-04-28T04:54:22.140Z,60.77
2023-04-28T04:57:24.745Z,55.15
2023-04-28T05:00:39.516Z,50.85
2023-04-28T05:03:48.597Z,50.80
2023-04-28T05:06:53.009Z,52.95
2023-04-28T05:10:03.769Z,58.58
2023-04-28T05:13:16.543Z,60.77
2023-04-28T05:16:21.141Z,60.99
2023-04-28T05:19:24.233Z,58.44
2023-04-28T05:22:40.558Z,54.68
2023-04-28T05:25:46.213Z,52.54
2023-04-28T05:29:06.969Z,51.71
2023-04-28T05:32:12.205Z,51.57
2023-04-28T05:38:41.626Z,55.15
2023-04-28T05:41:51.362Z,53.78
2023-04-28T05:44:56.410Z,55.55
2023-04-28T05:48:05.991Z,56.34
2023-04-28T05:51:17.534Z,54.53
2023-04-28T05:54:22.976Z,53.08
2023-04-28T05:57:32.077Z,54.79
2023-04-28T06:00:39.322Z,59.81
2023-04-28T06:03:46.426Z,60.35
2023-04-28T06:06:53.045Z,62.14
2023-04-28T06:10:09.727Z,58.65
2023-04-28T06:13:28.220Z,55.31
2023-04-28T06:16:33.294Z,52.70
2023-04-28T06:19:43.657Z,51.04
2023-04-28T06:22:57.899Z,52.45
2023-04-28T06:26:10.443Z,50.26
2023-04-28T06:29:19.524Z,50.26
2023-04-28T06:32:22.619Z,50.95
2023-04-28T06:35:37.776Z,52.25
2023-04-28T06:38:43.303Z,51.44
2023-04-28T06:41:46.184Z,51.01
2023-04-28T06:44:48.811Z,52.18
2023-04-28T06:47:57.203Z,52.62
2023-04-28T06:51:05.637Z,52.15
2023-04-28T06:54:13.690Z,50.90
2023-04-28T06:57:26.052Z,49.65
2023-04-28T07:00:31.118Z,50.56
2023-04-28T07:03:35.418Z,53.01
2023-04-28T07:06:40.092Z,51.08
2023-04-28T07:09:43.415Z,49.70
2023-04-28T07:12:49.382Z,45.37
2023-04-28T07:15:55.524Z,39.02
2023-04-28T07:18:59.649Z,38.98
2023-04-28T07:22:02.699Z,41.52
2023-04-28T07:25:06.599Z,44.20
2023-04-28T07:28:10.853Z,40.39
2023-04-28T07:31:13.620Z,40.04
2023-04-28T07:34:16.845Z,39.08
2023-04-28T07:37:20.276Z,38.22
2023-04-28T07:40:23.230Z,37.76
2023-04-28T07:43:26.768Z,38.72
2023-04-28T07:46:30.022Z,38.99
2023-04-28T07:49:33.350Z,39.52
2023-04-28T07:52:36.330Z,37.76
2023-04-28T07:55:39.321Z,38.80
2023-04-28T07:58:41.661Z,39.85
2023-04-28T08:01:44.358Z,38.05
2023-04-28T08:04:47.194Z,40.12
2023-04-28T08:07:52.233Z,35.94
2023-04-28T08:10:58.023Z,33.76
2023-04-28T08:14:03.607Z,35.47
2023-04-28T08:17:06.712Z,36.19
2023-04-28T08:20:10.424Z,33.75
2023-04-28T08:23:12.488Z,36.16
2023-04-28T08:26:16.405Z,37.28
2023-04-28T08:29:19.403Z,36.94
2023-04-28T08:32:21.285Z,35.44
2023-04-28T08:35:23.603Z,35.55
2023-04-28T08:38:27.063Z,36.57
2023-04-28T08:41:32.795Z,36.17
2023-04-28T08:44:40.447Z,35.05
2023-04-28T08:47:47.105Z,33.81
2023-04-28T08:50:52.830Z,34.66
2023-04-28T08:54:18.936Z,37.21
2023-04-28T08:57:23.184Z,34.76
2023-04-28T09:00:28.240Z,33.32
2023-04-28T09:03:33.870Z,36.05
2023-04-28T09:06:38.387Z,36.11
2023-04-28T09:09:42.925Z,35.81
2023-04-28T09:12:46.641Z,35.85
2023-04-28T09:15:51.430Z,34.46
2023-04-28T09:18:58.332Z,35.58
2023-04-28T09:22:24.951Z,34.38
2023-04-28T09:25:31.444Z,35.36
2023-04-28T09:28:36.297Z,34.15
2023-04-28T09:31:41.465Z,33.43
2023-04-28T09:34:58.842Z,32.31
2023-04-28T09:38:03.526Z,34.27
2023-04-28T09:41:13.782Z,33.71
2023-04-28T09:44:21.626Z,32.37
2023-04-28T09:47:25.531Z,32.87
2023-04-28T09:50:42.359Z,31.06
2023-04-28T09:53:45.407Z,32.10
2023-04-28T09:56:53.992Z,32.98
2023-04-28T09:59:59.511Z,32.08
2023-04-28T10:03:02.649Z,32.89
2023-04-28T10:06:08.842Z,31.97
2023-04-28T10:09:16.649Z,30.96
2023-04-28T10:12:28.148Z,32.83
2023-04-28T10:15:34.702Z,31.22
2023-04-28T10:18:39.628Z,32.72
2023-04-28T10:21:49.479Z,32.75
2023-04-28T10:24:59.430Z,32.79
2023-04-28T10:28:07.708Z,31.97
2023-04-28T10:31:18.063Z,32.65
2023-04-28T10:34:29.483Z,32.92
2023-04-28T10:38:15.632Z,32.87
2023-04-28T10:41:39.114Z,34.97
2023-04-28T10:44:42.965Z,32.88
2023-04-28T10:48:20.001Z,32.26
2023-04-28T10:51:34.506Z,34.00
2023-04-28T10:54:37.540Z,31.71
2023-04-28T15:11:12.783Z,38.17
2023-04-28T15:14:16.955Z,38.54
2023-04-28T15:17:20.858Z,38.26
2023-04-28T15:20:23.492Z,38.69
2023-04-28T15:23:25.900Z,38.20
2023-04-28T15:26:29.975Z,38.18
2023-04-28T15:29:33.768Z,37.92
2023-04-28T15:32:36.679Z,38.08
2023-04-28T15:35:39.239Z,39.06
2023-04-28T15:38:46.281Z,39.01
2023-04-28T15:41:50.642Z,40.94
2023-04-28T15:44:54.745Z,39.84
2023-04-28T15:47:59.315Z,40.82
2023-04-28T15:51:04.374Z,42.28
2023-04-28T15:54:07.280Z,41.97
2023-04-28T15:57:10.190Z,42.11
2023-04-28T16:00:16.522Z,42.39
2023-04-28T16:03:19.600Z,42.69
2023-04-28T16:06:22.141Z,42.96
2023-04-28T16:09:26.554Z,43.97
2023-04-28T16:12:28.935Z,43.40
2023-04-28T16:15:31.309Z,43.01
2023-04-28T16:18:36.865Z,43.81
2023-04-28T16:21:39.250Z,44.31
2023-04-28T16:24:44.270Z,44.69
2023-04-28T16:27:47.582Z,43.58
2023-04-28T16:30:52.710Z,43.58
2023-04-28T16:33:55.497Z,44.65
2023-04-28T16:36:58.112Z,44.08
2023-04-28T16:40:01.789Z,44.51
2023-04-28T16:43:04.675Z,44.76
2023-04-28T16:46:09.875Z,45.18
2023-04-28T16:49:13.893Z,44.70
2023-04-28T16:52:20.235Z,45.15
2023-04-28T16:55:22.579Z,45.37
2023-04-28T16:58:26.228Z,45.32
2023-04-28T17:01:31.570Z,45.62
2023-04-28T17:04:40.917Z,45.33
2023-04-28T17:07:43.971Z,46.82
2023-04-28T17:10:55.769Z,47.10
2023-04-28T17:13:58.760Z,47.09
2023-04-28T17:17:09.875Z,47.28
2023-04-28T17:20:26.414Z,47.60
2023-04-28T17:23:29.992Z,47.91
2023-04-28T17:26:33.248Z,48.62
2023-04-28T17:29:42.000Z,48.62
2023-04-28T17:32:44.978Z,48.47
2023-04-28T17:35:48.768Z,47.55
2023-04-28T17:38:57.803Z,48.92
2023-04-28T17:42:06.974Z,49.07
2023-04-28T17:45:12.512Z,49.15
2023-04-28T17:48:18.509Z,50.01
2023-04-28T17:51:22.765Z,49.97
2023-04-28T17:54:25.623Z,49.76
2023-04-28T17:57:28.083Z,49.37
2023-04-28T18:00:33.026Z,50.12
2023-04-28T18:03:36.729Z,51.86
2023-04-28T18:06:40.577Z,50.89
2023-04-28T18:09:44.240Z,50.28
2023-04-28T18:12:47.267Z,50.60
2023-04-28T18:15:49.877Z,51.31
2023-04-28T18:18:57.592Z,53.06
2023-04-28T18:22:02.582Z,55.27
2023-04-28T18:25:08.138Z,58.19
2023-04-28T18:28:13.046Z,62.94
2023-04-28T18:31:20.136Z,63.84
2023-04-28T18:34:22.683Z,66.46
2023-04-28T18:37:25.456Z,70.70
2023-04-28T18:40:36.466Z,73.80
2023-04-28T18:43:38.963Z,78.04
2023-04-28T18:46:43.826Z,81.56
2023-04-28T18:49:47.684Z,80.25
2023-04-28T18:52:50.159Z,80.92
2023-04-28T18:55:59.399Z,85.47
2023-04-28T18:59:07.268Z,93.27
2023-04-28T19:02:11.634Z,94.15
2023-04-28T19:05:19.559Z,98.14
2023-04-28T19:08:21.981Z,100.00
2023-04-28T19:11:25.588Z,100.00
2023-04-28T19:14:31.840Z,100.00
2023-04-28T19:17:39.951Z,100.00
2023-04-28T19:20:47.337Z,100.00
2023-04-28T19:23:54.385Z,100.00
2023-04-28T19:27:00.367Z,100.00
2023-04-28T19:30:04.630Z,100.00
2023-04-28T19:33:07.879Z,100.00
2023-04-28T19:36:14.845Z,100.00
2023-04-28T19:39:19.775Z,100.00
2023-04-28T19:42:26.157Z,100.00
2023-04-28T19:45:28.393Z,100.00
2023-04-28T19:48:34.647Z,100.00
2023-04-28T19:51:40.481Z,100.00
2023-04-28T19:54:46.214Z,100.00
2023-04-28T19:57:52.487Z,100.00
2023-04-28T20:00:55.623Z,100.00
2023-04-28T20:03:58.512Z,100.00
2023-04-28T20:07:02.029Z,100.00
2023-04-28T20:10:05.972Z,100.00
2023-04-28T20:13:09.381Z,100.00
2023-04-28T20:16:11.976Z,100.00
2023-04-28T20:19:14.753Z,100.00
2023-04-28T20:22:19.982Z,100.00
2023-04-28T20:25:23.549Z,100.00
2023-04-28T20:28:34.793Z,100.00
2023-04-28T20:31:39.035Z,100.00
2023-04-28T20:34:44.486Z,100.00
2023-04-28T20:37:50.322Z,100.00
2023-04-28T20:40:56.757Z,100.00
2023-04-28T20:44:07.982Z,100.00
2023-04-28T20:47:11.446Z,100.00
2023-04-28T20:50:30.117Z,100.00
2023-04-28T20:53:35.937Z,100.00
2023-04-28T20:56:41.993Z,100.00
2023-04-28T20:59:52.978Z,100.00
2023-04-28T21:02:56.791Z,100.00
2023-04-28T21:06:05.988Z,100.00
2023-04-28T21:09:09.280Z,100.00
2023-04-28T21:12:13.479Z,100.00
2023-04-28T21:15:16.374Z,100.00
2023-04-28T21:18:19.463Z,100.00
2023-04-28T21:21:25.656Z,100.00
2023-04-28T21:24:29.799Z,100.00
2023-04-28T21:27:44.442Z,100.00
2023-04-28T21:30:50.291Z,100.00
2023-04-28T21:34:01.503Z,100.00
2023-04-28T21:37:05.462Z,100.00
2023-04-28T21:40:10.517Z,100.00
2023-04-28T21:43:16.205Z,100.00
2023-04-28T21:46:20.438Z,100.00
2023-04-28T21:49:23.772Z,100.00
2023-04-28T21:55:44.606Z,100.00
2023-04-28T21:58:48.854Z,100.00
2023-04-28T22:01:53.484Z,100.00
2023-04-28T22:04:56.561Z,100.00
2023-04-28T22:08:04.837Z,100.00
2023-04-28T22:11:15.769Z,100.00
2023-04-28T22:14:35.446Z,100.00
2023-04-28T22:17:45.692Z,100.00
2023-04-28T22:20:53.393Z,100.00
2023-04-28T22:24:06.098Z,100.00
2023-04-28T22:27:11.906Z,100.00
2023-04-28T22:30:17.252Z,100.00
2023-04-28T22:33:22.065Z,100.00
2023-04-28T22:36:26.914Z,100.00
2023-04-28T22:39:32.463Z,100.00
2023-04-28T22:42:48.534Z,100.00
2023-04-28T22:45:59.427Z,100.00
2023-04-28T22:49:12.997Z,100.00
2023-04-28T22:52:23.756Z,100.00
2023-04-28T22:55:38.928Z,100.00
2023-04-28T22:58:47.750Z,100.00
2023-04-28T23:02:01.334Z,100.00
2023-04-28T23:05:08.590Z,100.00
2023-04-28T23:08:12.547Z,100.00
2023-04-28T23:11:26.450Z,100.00
2023-04-28T23:14:32.215Z,100.00
2023-04-28T23:17:36.475Z,100.00
2023-04-28T23:20:47.622Z,100.00
2023-04-28T23:23:52.464Z,100.00
2023-04-28T23:26:57.469Z,100.00
2023-04-28T23:29:59.769Z,100.00
2023-04-28T23:33:05.922Z,100.00
2023-04-28T23:36:08.302Z,100.00
2023-04-28T23:39:13.219Z,100.00
2023-04-28T23:42:18.086Z,100.00
2023-04-28T23:45:22.462Z,100.00
2023-04-28T23:48:26.820Z,100.00
2023-04-28T23:51:32.688Z,100.00
2023-04-28T23:54:36.405Z,100.00
2023-04-28T23:57:39.615Z,100.00
